sensor_id;sensor_type;location;lat;lon;timestamp;temperature;humidity
17208;DHT22;8720;48.488;9.202;2022-12-29T00:00:21;12.30;54.90
17208;DHT22;8720;48.488;9.202;2022-12-29T00:02:49;12.20;54.70
17208;DHT22;8720;48.488;9.202;2022-12-29T00:05:16;12.20;54.90
17208;DHT22;8720;48.488;9.202;2022-12-29T00:07:43;12.20;54.80
17208;DHT22;8720;48.488;9.202;2022-12-29T00:10:12;12.10;54.70
17208;DHT22;8720;48.488;9.202;2022-12-29T00:12:39;12.10;54.50
17208;DHT22;8720;48.488;9.202;2022-12-29T00:15:24;12.00;55.00
17208;DHT22;8720;48.488;9.202;2022-12-29T00:18:06;12.00;54.90
17208;DHT22;8720;48.488;9.202;2022-12-29T00:20:35;12.00;54.80
17208;DHT22;8720;48.488;9.202;2022-12-29T00:23:20;12.00;54.90
17208;DHT22;8720;48.488;9.202;2022-12-29T00:26:12;12.00;55.00
17208;DHT22;8720;48.488;9.202;2022-12-29T00:28:59;12.00;54.40
17208;DHT22;8720;48.488;9.202;2022-12-29T00:31:44;12.00;55.30
17208;DHT22;8720;48.488;9.202;2022-12-29T00:34:31;12.00;55.40
17208;DHT22;8720;48.488;9.202;2022-12-29T00:37:16;12.10;55.30
17208;DHT22;8720;48.488;9.202;2022-12-29T00:40:04;12.10;55.10
17208;DHT22;8720;48.488;9.202;2022-12-29T00:42:51;12.10;55.20
17208;DHT22;8720;48.488;9.202;2022-12-29T00:45:35;12.10;54.60
17208;DHT22;8720;48.488;9.202;2022-12-29T00:48:04;12.10;55.20
17208;DHT22;8720;48.488;9.202;2022-12-29T00:50:31;12.10;55.00
17208;DHT22;8720;48.488;9.202;2022-12-29T00:52:57;12.00;55.00
17208;DHT22;8720;48.488;9.202;2022-12-29T00:55:24;12.00;54.90
17208;DHT22;8720;48.488;9.202;2022-12-29T00:57:53;12.00;55.40
17208;DHT22;8720;48.488;9.202;2022-12-29T01:00:21;12.00;54.60
17208;DHT22;8720;48.488;9.202;2022-12-29T01:02:48;12.00;54.80
17208;DHT22;8720;48.488;9.202;2022-12-29T01:05:16;11.90;54.90
17208;DHT22;8720;48.488;9.202;2022-12-29T01:07:43;11.90;54.80
17208;DHT22;8720;48.488;9.202;2022-12-29T01:10:10;11.90;55.50
17208;DHT22;8720;48.488;9.202;2022-12-29T01:12:37;12.00;55.10
17208;DHT22;8720;48.488;9.202;2022-12-29T01:15:12;12.00;55.30
17208;DHT22;8720;48.488;9.202;2022-12-29T01:17:41;12.00;54.70
17208;DHT22;8720;48.488;9.202;2022-12-29T01:20:09;12.00;55.20
17208;DHT22;8720;48.488;9.202;2022-12-29T01:22:37;12.00;54.80
17208;DHT22;8720;48.488;9.202;2022-12-29T01:25:06;12.00;54.90
17208;DHT22;8720;48.488;9.202;2022-12-29T01:27:34;12.10;54.90
17208;DHT22;8720;48.488;9.202;2022-12-29T01:30:01;12.10;55.50
17208;DHT22;8720;48.488;9.202;2022-12-29T01:32:32;12.10;55.00
17208;DHT22;8720;48.488;9.202;2022-12-29T01:34:59;12.10;54.40
17208;DHT22;8720;48.488;9.202;2022-12-29T01:37:27;12.20;54.90
17208;DHT22;8720;48.488;9.202;2022-12-29T01:39:54;12.10;54.70
17208;DHT22;8720;48.488;9.202;2022-12-29T01:42:24;12.10;54.80
17208;DHT22;8720;48.488;9.202;2022-12-29T01:44:54;12.10;54.30
17208;DHT22;8720;48.488;9.202;2022-12-29T01:47:37;12.10;54.40
17208;DHT22;8720;48.488;9.202;2022-12-29T01:50:11;12.20;53.30
17208;DHT22;8720;48.488;9.202;2022-12-29T01:52:47;12.20;54.90
17208;DHT22;8720;48.488;9.202;2022-12-29T01:55:22;12.20;54.50
17208;DHT22;8720;48.488;9.202;2022-12-29T01:57:51;12.20;55.30
17208;DHT22;8720;48.488;9.202;2022-12-29T02:00:21;12.20;55.30
17208;DHT22;8720;48.488;9.202;2022-12-29T02:02:52;12.20;55.30
17208;DHT22;8720;48.488;9.202;2022-12-29T02:05:25;12.20;54.50
17208;DHT22;8720;48.488;9.202;2022-12-29T02:07:57;12.20;54.40
17208;DHT22;8720;48.488;9.202;2022-12-29T02:10:26;12.20;55.20
17208;DHT22;8720;48.488;9.202;2022-12-29T02:12:57;12.30;55.00
17208;DHT22;8720;48.488;9.202;2022-12-29T02:15:32;12.30;55.30
17208;DHT22;8720;48.488;9.202;2022-12-29T02:18:19;12.40;54.60
17208;DHT22;8720;48.488;9.202;2022-12-29T02:24:37;12.40;53.80
17208;DHT22;8720;48.488;9.202;2022-12-29T02:27:57;12.50;54.00
17208;DHT22;8720;48.488;9.202;2022-12-29T02:30:55;12.50;54.00
17208;DHT22;8720;48.488;9.202;2022-12-29T02:33:41;12.60;54.70
17208;DHT22;8720;48.488;9.202;2022-12-29T02:36:21;12.60;53.90
17208;DHT22;8720;48.488;9.202;2022-12-29T02:39:04;12.60;54.10
17208;DHT22;8720;48.488;9.202;2022-12-29T02:41:44;12.60;53.80
17208;DHT22;8720;48.488;9.202;2022-12-29T02:44:26;12.70;53.80
17208;DHT22;8720;48.488;9.202;2022-12-29T02:47:06;12.80;53.90
17208;DHT22;8720;48.488;9.202;2022-12-29T02:49:44;12.80;53.90
17208;DHT22;8720;48.488;9.202;2022-12-29T02:52:22;12.90;53.90
17208;DHT22;8720;48.488;9.202;2022-12-29T02:54:54;12.90;53.20
17208;DHT22;8720;48.488;9.202;2022-12-29T02:57:29;13.00;54.30
17208;DHT22;8720;48.488;9.202;2022-12-29T03:00:02;13.10;53.10
17208;DHT22;8720;48.488;9.202;2022-12-29T03:05:58;13.20;52.50
17208;DHT22;8720;48.488;9.202;2022-12-29T03:08:44;13.30;52.60
17208;DHT22;8720;48.488;9.202;2022-12-29T03:11:23;13.30;53.10
17208;DHT22;8720;48.488;9.202;2022-12-29T03:14:16;13.40;53.50
17208;DHT22;8720;48.488;9.202;2022-12-29T03:17:20;13.40;53.30
17208;DHT22;8720;48.488;9.202;2022-12-29T03:20:01;13.50;53.10
17208;DHT22;8720;48.488;9.202;2022-12-29T03:22:41;13.50;52.70
17208;DHT22;8720;48.488;9.202;2022-12-29T03:25:20;13.60;53.10
17208;DHT22;8720;48.488;9.202;2022-12-29T03:27:53;13.60;53.50
17208;DHT22;8720;48.488;9.202;2022-12-29T03:30:26;13.60;53.10
17208;DHT22;8720;48.488;9.202;2022-12-29T03:32:59;13.70;53.30
17208;DHT22;8720;48.488;9.202;2022-12-29T03:35:35;13.70;53.10
17208;DHT22;8720;48.488;9.202;2022-12-29T03:38:13;13.80;53.10
17208;DHT22;8720;48.488;9.202;2022-12-29T03:40:48;13.80;52.80
17208;DHT22;8720;48.488;9.202;2022-12-29T03:43:19;13.80;52.50
17208;DHT22;8720;48.488;9.202;2022-12-29T03:45:47;13.80;52.90
17208;DHT22;8720;48.488;9.202;2022-12-29T03:48:14;13.90;53.20
17208;DHT22;8720;48.488;9.202;2022-12-29T03:50:46;13.80;53.10
17208;DHT22;8720;48.488;9.202;2022-12-29T03:53:14;13.90;52.60
17208;DHT22;8720;48.488;9.202;2022-12-29T03:55:41;13.90;53.10
17208;DHT22;8720;48.488;9.202;2022-12-29T03:58:10;13.90;52.50
17208;DHT22;8720;48.488;9.202;2022-12-29T04:00:55;13.90;52.60
17208;DHT22;8720;48.488;9.202;2022-12-29T04:03:23;13.90;52.70
17208;DHT22;8720;48.488;9.202;2022-12-29T04:05:52;13.90;52.70
17208;DHT22;8720;48.488;9.202;2022-12-29T04:08:19;13.90;52.70
17208;DHT22;8720;48.488;9.202;2022-12-29T04:10:48;13.90;52.40
17208;DHT22;8720;48.488;9.202;2022-12-29T04:13:17;13.80;52.10
17208;DHT22;8720;48.488;9.202;2022-12-29T04:15:44;13.80;52.20
17208;DHT22;8720;48.488;9.202;2022-12-29T04:18:12;13.80;52.20
17208;DHT22;8720;48.488;9.202;2022-12-29T04:20:39;13.80;52.40
17208;DHT22;8720;48.488;9.202;2022-12-29T04:23:26;13.70;52.30
17208;DHT22;8720;48.488;9.202;2022-12-29T04:25:54;13.70;52.10
17208;DHT22;8720;48.488;9.202;2022-12-29T04:28:22;13.70;52.60
17208;DHT22;8720;48.488;9.202;2022-12-29T04:31:10;13.70;52.60
17208;DHT22;8720;48.488;9.202;2022-12-29T04:33:40;13.70;52.60
17208;DHT22;8720;48.488;9.202;2022-12-29T04:36:07;13.70;52.70
17208;DHT22;8720;48.488;9.202;2022-12-29T04:38:38;13.70;52.70
17208;DHT22;8720;48.488;9.202;2022-12-29T04:41:05;13.70;52.30
17208;DHT22;8720;48.488;9.202;2022-12-29T04:43:35;13.70;53.20
17208;DHT22;8720;48.488;9.202;2022-12-29T04:46:23;13.70;52.50
17208;DHT22;8720;48.488;9.202;2022-12-29T04:49:03;13.70;52.60
17208;DHT22;8720;48.488;9.202;2022-12-29T04:51:59;13.80;53.00
17208;DHT22;8720;48.488;9.202;2022-12-29T04:54:29;13.80;53.00
17208;DHT22;8720;48.488;9.202;2022-12-29T04:57:11;13.80;52.30
17208;DHT22;8720;48.488;9.202;2022-12-29T04:59:39;13.80;52.50
17208;DHT22;8720;48.488;9.202;2022-12-29T05:02:07;13.70;52.80
17208;DHT22;8720;48.488;9.202;2022-12-29T05:04:35;13.70;52.10
17208;DHT22;8720;48.488;9.202;2022-12-29T05:07:02;13.70;52.20
17208;DHT22;8720;48.488;9.202;2022-12-29T05:09:31;13.70;52.30
17208;DHT22;8720;48.488;9.202;2022-12-29T05:11:59;13.70;52.00
17208;DHT22;8720;48.488;9.202;2022-12-29T05:14:28;13.70;52.40
17208;DHT22;8720;48.488;9.202;2022-12-29T05:16:56;13.60;52.20
17208;DHT22;8720;48.488;9.202;2022-12-29T05:19:24;13.60;52.30
17208;DHT22;8720;48.488;9.202;2022-12-29T05:21:52;13.70;52.30
17208;DHT22;8720;48.488;9.202;2022-12-29T05:24:20;13.60;52.20
17208;DHT22;8720;48.488;9.202;2022-12-29T05:26:49;13.70;52.30
17208;DHT22;8720;48.488;9.202;2022-12-29T05:29:35;13.70;52.10
17208;DHT22;8720;48.488;9.202;2022-12-29T05:32:02;13.70;52.50
17208;DHT22;8720;48.488;9.202;2022-12-29T05:34:30;13.70;52.50
17208;DHT22;8720;48.488;9.202;2022-12-29T05:36:58;13.70;52.20
17208;DHT22;8720;48.488;9.202;2022-12-29T05:39:25;13.70;52.20
17208;DHT22;8720;48.488;9.202;2022-12-29T05:41:58;13.70;52.20
17208;DHT22;8720;48.488;9.202;2022-12-29T05:44:47;13.70;51.80
17208;DHT22;8720;48.488;9.202;2022-12-29T05:47:24;13.70;52.00
17208;DHT22;8720;48.488;9.202;2022-12-29T05:50:04;13.70;52.40
17208;DHT22;8720;48.488;9.202;2022-12-29T05:52:52;13.70;52.60
17208;DHT22;8720;48.488;9.202;2022-12-29T05:55:20;13.60;52.60
17208;DHT22;8720;48.488;9.202;2022-12-29T05:57:51;13.70;52.80
17208;DHT22;8720;48.488;9.202;2022-12-29T06:00:19;13.70;52.50
17208;DHT22;8720;48.488;9.202;2022-12-29T06:02:46;13.70;52.70
17208;DHT22;8720;48.488;9.202;2022-12-29T06:05:15;13.70;52.70
17208;DHT22;8720;48.488;9.202;2022-12-29T06:07:43;13.80;52.70
17208;DHT22;8720;48.488;9.202;2022-12-29T06:10:13;13.80;52.70
17208;DHT22;8720;48.488;9.202;2022-12-29T06:12:44;13.80;53.50
17208;DHT22;8720;48.488;9.202;2022-12-29T06:15:13;13.80;53.00
17208;DHT22;8720;48.488;9.202;2022-12-29T06:17:42;13.80;52.50
17208;DHT22;8720;48.488;9.202;2022-12-29T06:20:10;13.90;53.10
17208;DHT22;8720;48.488;9.202;2022-12-29T06:22:38;13.90;53.00
17208;DHT22;8720;48.488;9.202;2022-12-29T06:25:05;13.90;53.00
17208;DHT22;8720;48.488;9.202;2022-12-29T06:27:34;13.90;53.00
17208;DHT22;8720;48.488;9.202;2022-12-29T06:30:02;13.90;52.90
17208;DHT22;8720;48.488;9.202;2022-12-29T06:32:31;14.00;52.90
17208;DHT22;8720;48.488;9.202;2022-12-29T06:35:05;13.90;52.60
17208;DHT22;8720;48.488;9.202;2022-12-29T06:37:37;14.00;52.80
17208;DHT22;8720;48.488;9.202;2022-12-29T06:40:06;14.00;53.00
17208;DHT22;8720;48.488;9.202;2022-12-29T06:42:52;13.90;52.90
17208;DHT22;8720;48.488;9.202;2022-12-29T06:45:38;13.90;53.00
17208;DHT22;8720;48.488;9.202;2022-12-29T06:48:07;13.90;53.50
17208;DHT22;8720;48.488;9.202;2022-12-29T06:50:35;13.90;52.50
17208;DHT22;8720;48.488;9.202;2022-12-29T06:53:02;13.90;52.80
17208;DHT22;8720;48.488;9.202;2022-12-29T06:55:29;13.90;52.90
17208;DHT22;8720;48.488;9.202;2022-12-29T06:57:57;13.90;53.00
17208;DHT22;8720;48.488;9.202;2022-12-29T07:00:26;13.90;53.00
17208;DHT22;8720;48.488;9.202;2022-12-29T07:02:54;13.90;53.10
17208;DHT22;8720;48.488;9.202;2022-12-29T07:05:25;13.90;52.90
17208;DHT22;8720;48.488;9.202;2022-12-29T07:07:53;13.90;52.80
17208;DHT22;8720;48.488;9.202;2022-12-29T07:10:22;14.00;53.40
17208;DHT22;8720;48.488;9.202;2022-12-29T07:12:49;14.00;53.40
17208;DHT22;8720;48.488;9.202;2022-12-29T07:15:17;14.00;53.40
17208;DHT22;8720;48.488;9.202;2022-12-29T07:17:44;14.00;53.30
17208;DHT22;8720;48.488;9.202;2022-12-29T07:20:11;14.10;53.50
17208;DHT22;8720;48.488;9.202;2022-12-29T07:22:41;14.10;53.20
17208;DHT22;8720;48.488;9.202;2022-12-29T07:25:08;14.10;53.00
17208;DHT22;8720;48.488;9.202;2022-12-29T07:27:36;14.20;53.40
17208;DHT22;8720;48.488;9.202;2022-12-29T07:30:04;14.20;53.10
17208;DHT22;8720;48.488;9.202;2022-12-29T07:32:32;14.20;53.10
17208;DHT22;8720;48.488;9.202;2022-12-29T07:35:00;14.20;52.70
17208;DHT22;8720;48.488;9.202;2022-12-29T07:37:28;14.20;52.90
17208;DHT22;8720;48.488;9.202;2022-12-29T07:39:56;14.20;53.10
17208;DHT22;8720;48.488;9.202;2022-12-29T07:42:24;14.20;52.70
17208;DHT22;8720;48.488;9.202;2022-12-29T07:44:52;14.20;52.90
17208;DHT22;8720;48.488;9.202;2022-12-29T07:47:26;14.20;52.90
17208;DHT22;8720;48.488;9.202;2022-12-29T07:49:53;14.20;52.90
17208;DHT22;8720;48.488;9.202;2022-12-29T07:52:20;14.20;52.80
17208;DHT22;8720;48.488;9.202;2022-12-29T07:54:48;14.20;52.80
17208;DHT22;8720;48.488;9.202;2022-12-29T07:57:16;14.20;52.90
17208;DHT22;8720;48.488;9.202;2022-12-29T07:59:43;14.20;52.60
17208;DHT22;8720;48.488;9.202;2022-12-29T08:02:11;14.20;52.90
17208;DHT22;8720;48.488;9.202;2022-12-29T08:04:38;14.20;53.10
17208;DHT22;8720;48.488;9.202;2022-12-29T08:07:05;14.30;53.10
17208;DHT22;8720;48.488;9.202;2022-12-29T08:09:33;14.30;53.00
17208;DHT22;8720;48.488;9.202;2022-12-29T08:12:00;14.30;53.00
17208;DHT22;8720;48.488;9.202;2022-12-29T08:14:29;14.40;53.10
17208;DHT22;8720;48.488;9.202;2022-12-29T08:16:56;14.40;52.50
17208;DHT22;8720;48.488;9.202;2022-12-29T08:19:24;14.50;52.80
17208;DHT22;8720;48.488;9.202;2022-12-29T08:21:51;14.50;52.50
17208;DHT22;8720;48.488;9.202;2022-12-29T08:24:19;14.60;52.80
17208;DHT22;8720;48.488;9.202;2022-12-29T08:26:46;14.70;52.80
17208;DHT22;8720;48.488;9.202;2022-12-29T08:29:13;14.70;49.40
17208;DHT22;8720;48.488;9.202;2022-12-29T08:31:43;14.70;50.90
17208;DHT22;8720;48.488;9.202;2022-12-29T08:34:11;14.80;51.00
17208;DHT22;8720;48.488;9.202;2022-12-29T08:36:38;14.90;51.60
17208;DHT22;8720;48.488;9.202;2022-12-29T08:39:05;15.00;51.60
17208;DHT22;8720;48.488;9.202;2022-12-29T08:41:33;15.00;51.40
17208;DHT22;8720;48.488;9.202;2022-12-29T08:44:00;15.10;51.60
17208;DHT22;8720;48.488;9.202;2022-12-29T08:46:27;15.10;51.40
17208;DHT22;8720;48.488;9.202;2022-12-29T08:48:57;15.10;51.50
17208;DHT22;8720;48.488;9.202;2022-12-29T08:51:24;15.20;51.10
17208;DHT22;8720;48.488;9.202;2022-12-29T08:53:52;15.20;51.30
17208;DHT22;8720;48.488;9.202;2022-12-29T08:56:20;15.20;51.30
17208;DHT22;8720;48.488;9.202;2022-12-29T08:58:51;15.20;51.70
17208;DHT22;8720;48.488;9.202;2022-12-29T09:01:20;15.20;51.50
17208;DHT22;8720;48.488;9.202;2022-12-29T09:03:48;15.30;51.30
17208;DHT22;8720;48.488;9.202;2022-12-29T09:06:17;15.30;51.40
17208;DHT22;8720;48.488;9.202;2022-12-29T09:08:45;15.30;51.20
17208;DHT22;8720;48.488;9.202;2022-12-29T09:11:14;15.30;51.70
17208;DHT22;8720;48.488;9.202;2022-12-29T09:13:43;15.30;51.20
17208;DHT22;8720;48.488;9.202;2022-12-29T09:16:11;15.30;51.50
17208;DHT22;8720;48.488;9.202;2022-12-29T09:18:38;15.30;51.30
17208;DHT22;8720;48.488;9.202;2022-12-29T09:21:07;15.30;51.50
17208;DHT22;8720;48.488;9.202;2022-12-29T09:23:38;15.30;51.20
17208;DHT22;8720;48.488;9.202;2022-12-29T09:26:06;15.30;51.20
17208;DHT22;8720;48.488;9.202;2022-12-29T09:28:34;15.30;51.70
17208;DHT22;8720;48.488;9.202;2022-12-29T09:31:02;15.30;51.50
17208;DHT22;8720;48.488;9.202;2022-12-29T09:33:30;15.30;51.70
17208;DHT22;8720;48.488;9.202;2022-12-29T09:36:00;15.30;51.70
17208;DHT22;8720;48.488;9.202;2022-12-29T09:38:28;15.30;51.70
17208;DHT22;8720;48.488;9.202;2022-12-29T09:41:01;15.30;51.70
17208;DHT22;8720;48.488;9.202;2022-12-29T09:43:54;15.30;51.20
17208;DHT22;8720;48.488;9.202;2022-12-29T09:46:33;15.30;50.70
17208;DHT22;8720;48.488;9.202;2022-12-29T09:49:13;15.30;51.60
17208;DHT22;8720;48.488;9.202;2022-12-29T09:51:52;15.40;51.10
17208;DHT22;8720;48.488;9.202;2022-12-29T09:54:29;15.40;51.80
17208;DHT22;8720;48.488;9.202;2022-12-29T09:57:16;15.40;51.40
17208;DHT22;8720;48.488;9.202;2022-12-29T09:59:50;15.40;50.80
17208;DHT22;8720;48.488;9.202;2022-12-29T10:02:32;15.40;51.70
17208;DHT22;8720;48.488;9.202;2022-12-29T10:05:08;15.40;50.90
17208;DHT22;8720;48.488;9.202;2022-12-29T10:07:51;15.40;52.00
17208;DHT22;8720;48.488;9.202;2022-12-29T10:10:35;15.40;52.00
17208;DHT22;8720;48.488;9.202;2022-12-29T10:13:19;15.40;51.10
17208;DHT22;8720;48.488;9.202;2022-12-29T10:16:00;15.50;51.30
17208;DHT22;8720;48.488;9.202;2022-12-29T10:18:56;15.50;51.70
17208;DHT22;8720;48.488;9.202;2022-12-29T10:21:52;15.50;50.50
17208;DHT22;8720;48.488;9.202;2022-12-29T10:24:29;15.50;51.20
17208;DHT22;8720;48.488;9.202;2022-12-29T10:27:02;15.50;52.00
17208;DHT22;8720;48.488;9.202;2022-12-29T10:29:36;15.50;52.40
17208;DHT22;8720;48.488;9.202;2022-12-29T10:32:13;15.50;51.50
17208;DHT22;8720;48.488;9.202;2022-12-29T10:34:52;15.60;51.50
17208;DHT22;8720;48.488;9.202;2022-12-29T10:37:30;15.60;51.70
17208;DHT22;8720;48.488;9.202;2022-12-29T10:40:16;15.60;51.40
17208;DHT22;8720;48.488;9.202;2022-12-29T10:42:53;15.60;51.00
17208;DHT22;8720;48.488;9.202;2022-12-29T10:45:25;15.60;52.00
17208;DHT22;8720;48.488;9.202;2022-12-29T10:48:00;15.50;51.70
17208;DHT22;8720;48.488;9.202;2022-12-29T10:50:32;15.50;51.60
17208;DHT22;8720;48.488;9.202;2022-12-29T10:53:02;15.50;52.30
17208;DHT22;8720;48.488;9.202;2022-12-29T10:55:33;15.50;52.00
17208;DHT22;8720;48.488;9.202;2022-12-29T10:58:05;15.50;52.30
17208;DHT22;8720;48.488;9.202;2022-12-29T11:00:38;15.50;52.00
17208;DHT22;8720;48.488;9.202;2022-12-29T11:03:18;15.40;52.20
17208;DHT22;8720;48.488;9.202;2022-12-29T11:06:03;15.40;51.30
17208;DHT22;8720;48.488;9.202;2022-12-29T11:08:37;15.40;51.90
17208;DHT22;8720;48.488;9.202;2022-12-29T11:11:09;15.40;52.70
17208;DHT22;8720;48.488;9.202;2022-12-29T11:13:47;15.40;52.70
17208;DHT22;8720;48.488;9.202;2022-12-29T11:16:27;15.40;52.00
17208;DHT22;8720;48.488;9.202;2022-12-29T11:18:57;15.40;51.70
17208;DHT22;8720;48.488;9.202;2022-12-29T11:21:32;15.40;53.10
17208;DHT22;8720;48.488;9.202;2022-12-29T11:24:19;15.40;52.90
17208;DHT22;8720;48.488;9.202;2022-12-29T11:26:50;15.50;52.90
17208;DHT22;8720;48.488;9.202;2022-12-29T11:29:27;15.40;54.00
17208;DHT22;8720;48.488;9.202;2022-12-29T11:32:12;15.40;53.80
17208;DHT22;8720;48.488;9.202;2022-12-29T11:34:44;15.40;53.80
17208;DHT22;8720;48.488;9.202;2022-12-29T11:37:12;15.40;54.70
17208;DHT22;8720;48.488;9.202;2022-12-29T11:39:48;15.40;54.90
17208;DHT22;8720;48.488;9.202;2022-12-29T11:42:21;15.50;55.00
17208;DHT22;8720;48.488;9.202;2022-12-29T11:44:51;15.50;55.20
17208;DHT22;8720;48.488;9.202;2022-12-29T11:47:27;15.60;55.30
17208;DHT22;8720;48.488;9.202;2022-12-29T11:49:57;15.60;54.70
17208;DHT22;8720;48.488;9.202;2022-12-29T11:52:29;15.60;55.20
17208;DHT22;8720;48.488;9.202;2022-12-29T11:55:02;15.70;55.10
17208;DHT22;8720;48.488;9.202;2022-12-29T11:57:33;15.70;54.90
17208;DHT22;8720;48.488;9.202;2022-12-29T12:00:06;15.70;55.50
17208;DHT22;8720;48.488;9.202;2022-12-29T12:02:48;15.70;54.70
17208;DHT22;8720;48.488;9.202;2022-12-29T12:05:29;15.70;54.60
17208;DHT22;8720;48.488;9.202;2022-12-29T12:08:09;15.70;54.00
17208;DHT22;8720;48.488;9.202;2022-12-29T12:10:44;15.70;54.20
17208;DHT22;8720;48.488;9.202;2022-12-29T12:13:19;15.60;54.40
17208;DHT22;8720;48.488;9.202;2022-12-29T12:15:56;15.60;54.60
17208;DHT22;8720;48.488;9.202;2022-12-29T12:18:43;15.60;54.60
17208;DHT22;8720;48.488;9.202;2022-12-29T12:21:20;15.50;54.00
17208;DHT22;8720;48.488;9.202;2022-12-29T12:24:23;15.50;54.70
17208;DHT22;8720;48.488;9.202;2022-12-29T12:27:09;15.40;54.40
17208;DHT22;8720;48.488;9.202;2022-12-29T12:29:48;15.40;54.90
17208;DHT22;8720;48.488;9.202;2022-12-29T12:32:29;15.30;55.00
17208;DHT22;8720;48.488;9.202;2022-12-29T12:35:13;15.30;55.50
17208;DHT22;8720;48.488;9.202;2022-12-29T12:37:56;15.20;55.90
17208;DHT22;8720;48.488;9.202;2022-12-29T12:40:58;15.20;55.40
17208;DHT22;8720;48.488;9.202;2022-12-29T12:43:38;15.10;55.20
17208;DHT22;8720;48.488;9.202;2022-12-29T12:46:48;15.10;56.10
17208;DHT22;8720;48.488;9.202;2022-12-29T12:50:08;15.10;55.60
17208;DHT22;8720;48.488;9.202;2022-12-29T12:53:18;15.10;55.80
17208;DHT22;8720;48.488;9.202;2022-12-29T12:56:05;15.10;56.20
17208;DHT22;8720;48.488;9.202;2022-12-29T12:58:56;15.10;56.50
17208;DHT22;8720;48.488;9.202;2022-12-29T13:01:38;15.10;56.90
17208;DHT22;8720;48.488;9.202;2022-12-29T13:04:30;15.10;56.70
17208;DHT22;8720;48.488;9.202;2022-12-29T13:07:17;15.10;56.10
17208;DHT22;8720;48.488;9.202;2022-12-29T13:10:02;15.10;56.60
17208;DHT22;8720;48.488;9.202;2022-12-29T13:12:55;15.10;56.30
17208;DHT22;8720;48.488;9.202;2022-12-29T13:15:42;15.10;56.40
17208;DHT22;8720;48.488;9.202;2022-12-29T13:18:22;15.10;56.10
17208;DHT22;8720;48.488;9.202;2022-12-29T13:21:04;15.00;56.10
17208;DHT22;8720;48.488;9.202;2022-12-29T13:23:42;15.00;56.40
17208;DHT22;8720;48.488;9.202;2022-12-29T13:26:19;15.00;56.30
17208;DHT22;8720;48.488;9.202;2022-12-29T13:28:55;14.90;56.50
17208;DHT22;8720;48.488;9.202;2022-12-29T13:31:35;14.90;56.60
17208;DHT22;8720;48.488;9.202;2022-12-29T13:34:17;14.90;56.80
17208;DHT22;8720;48.488;9.202;2022-12-29T13:36:59;14.90;56.70
17208;DHT22;8720;48.488;9.202;2022-12-29T13:39:34;14.90;57.10
17208;DHT22;8720;48.488;9.202;2022-12-29T13:42:06;14.90;57.00
17208;DHT22;8720;48.488;9.202;2022-12-29T13:44:37;14.90;57.20
17208;DHT22;8720;48.488;9.202;2022-12-29T13:47:19;14.90;57.10
17208;DHT22;8720;48.488;9.202;2022-12-29T13:49:52;14.90;56.30
17208;DHT22;8720;48.488;9.202;2022-12-29T13:52:27;14.90;57.40
17208;DHT22;8720;48.488;9.202;2022-12-29T13:55:17;14.90;56.80
17208;DHT22;8720;48.488;9.202;2022-12-29T13:57:51;14.90;56.50
17208;DHT22;8720;48.488;9.202;2022-12-29T14:00:27;14.90;56.70
17208;DHT22;8720;48.488;9.202;2022-12-29T14:03:18;14.90;57.00
17208;DHT22;8720;48.488;9.202;2022-12-29T14:06:10;14.90;56.20
17208;DHT22;8720;48.488;9.202;2022-12-29T14:08:42;15.00;56.30
17208;DHT22;8720;48.488;9.202;2022-12-29T14:11:15;15.00;57.10
17208;DHT22;8720;48.488;9.202;2022-12-29T14:13:46;15.00;56.40
17208;DHT22;8720;48.488;9.202;2022-12-29T14:16:27;15.00;56.60
17208;DHT22;8720;48.488;9.202;2022-12-29T14:19:04;15.00;55.60
17208;DHT22;8720;48.488;9.202;2022-12-29T14:21:37;15.00;55.50
17208;DHT22;8720;48.488;9.202;2022-12-29T14:24:37;14.90;56.40
17208;DHT22;8720;48.488;9.202;2022-12-29T14:27:51;14.90;55.00
17208;DHT22;8720;48.488;9.202;2022-12-29T14:33:28;14.90;54.70
17208;DHT22;8720;48.488;9.202;2022-12-29T14:35:57;14.90;56.00
17208;DHT22;8720;48.488;9.202;2022-12-29T14:38:49;14.80;55.90
17208;DHT22;8720;48.488;9.202;2022-12-29T14:41:26;14.80;56.00
17208;DHT22;8720;48.488;9.202;2022-12-29T14:44:09;14.70;55.50
17208;DHT22;8720;48.488;9.202;2022-12-29T14:46:46;14.70;55.20
17208;DHT22;8720;48.488;9.202;2022-12-29T14:49:23;14.70;55.40
17208;DHT22;8720;48.488;9.202;2022-12-29T14:52:03;14.60;55.40
17208;DHT22;8720;48.488;9.202;2022-12-29T14:54:48;14.60;55.50
17208;DHT22;8720;48.488;9.202;2022-12-29T14:57:26;14.50;54.50
17208;DHT22;8720;48.488;9.202;2022-12-29T15:02:49;14.40;54.70
17208;DHT22;8720;48.488;9.202;2022-12-29T15:05:34;14.40;55.20
17208;DHT22;8720;48.488;9.202;2022-12-29T15:08:05;14.30;54.60
17208;DHT22;8720;48.488;9.202;2022-12-29T15:10:45;14.30;55.50
17208;DHT22;8720;48.488;9.202;2022-12-29T15:13:23;14.20;54.60
17208;DHT22;8720;48.488;9.202;2022-12-29T15:15:57;14.20;55.30
17208;DHT22;8720;48.488;9.202;2022-12-29T15:18:26;14.20;55.40
17208;DHT22;8720;48.488;9.202;2022-12-29T15:20:58;14.10;55.30
17208;DHT22;8720;48.488;9.202;2022-12-29T15:23:29;14.10;55.30
17208;DHT22;8720;48.488;9.202;2022-12-29T15:26:00;14.00;55.20
17208;DHT22;8720;48.488;9.202;2022-12-29T15:28:38;14.00;55.20
17208;DHT22;8720;48.488;9.202;2022-12-29T15:31:18;13.90;54.80
17208;DHT22;8720;48.488;9.202;2022-12-29T15:33:54;13.90;55.20
17208;DHT22;8720;48.488;9.202;2022-12-29T15:36:46;13.80;55.30
17208;DHT22;8720;48.488;9.202;2022-12-29T15:39:29;13.80;55.10
17208;DHT22;8720;48.488;9.202;2022-12-29T15:42:10;13.80;55.30
17208;DHT22;8720;48.488;9.202;2022-12-29T15:44:55;13.70;55.00
17208;DHT22;8720;48.488;9.202;2022-12-29T15:47:31;13.70;55.20
17208;DHT22;8720;48.488;9.202;2022-12-29T15:50:05;13.70;55.10
17208;DHT22;8720;48.488;9.202;2022-12-29T15:52:43;13.60;54.90
17208;DHT22;8720;48.488;9.202;2022-12-29T15:55:24;13.60;55.30
17208;DHT22;8720;48.488;9.202;2022-12-29T15:58:05;13.50;54.70
17208;DHT22;8720;48.488;9.202;2022-12-29T16:00:48;13.50;55.30
17208;DHT22;8720;48.488;9.202;2022-12-29T16:03:29;13.50;55.20
17208;DHT22;8720;48.488;9.202;2022-12-29T16:06:10;13.50;54.80
17208;DHT22;8720;48.488;9.202;2022-12-29T16:09:01;13.50;55.00
17208;DHT22;8720;48.488;9.202;2022-12-29T16:11:35;13.50;55.20
17208;DHT22;8720;48.488;9.202;2022-12-29T16:14:09;13.50;55.50
17208;DHT22;8720;48.488;9.202;2022-12-29T16:16:46;13.50;55.30
17208;DHT22;8720;48.488;9.202;2022-12-29T16:19:24;13.50;55.60
17208;DHT22;8720;48.488;9.202;2022-12-29T16:22:01;13.50;55.20
17208;DHT22;8720;48.488;9.202;2022-12-29T16:24:40;13.60;55.50
17208;DHT22;8720;48.488;9.202;2022-12-29T16:27:21;13.60;55.70
17208;DHT22;8720;48.488;9.202;2022-12-29T16:29:58;13.60;55.40
17208;DHT22;8720;48.488;9.202;2022-12-29T16:32:34;13.60;55.70
17208;DHT22;8720;48.488;9.202;2022-12-29T16:35:22;13.60;55.60
17208;DHT22;8720;48.488;9.202;2022-12-29T16:38:11;13.60;55.00
17208;DHT22;8720;48.488;9.202;2022-12-29T16:40:51;13.60;54.60
17208;DHT22;8720;48.488;9.202;2022-12-29T16:43:24;13.60;55.00
17208;DHT22;8720;48.488;9.202;2022-12-29T16:46:19;13.60;55.30
17208;DHT22;8720;48.488;9.202;2022-12-29T16:48:55;13.60;54.30